createdAt,value
2023-03-30T00:01:18.490Z,11.40
2023-03-30T00:03:47.470Z,11.30
2023-03-30T00:06:23.484Z,11.30
2023-03-30T00:08:59.931Z,11.30
2023-03-30T00:11:28.813Z,11.40
2023-03-30T00:13:57.178Z,11.30
2023-03-30T00:16:25.304Z,11.20
2023-03-30T00:18:53.396Z,11.20
2023-03-30T00:21:22.598Z,11.20
2023-03-30T00:23:51.021Z,11.20
2023-03-30T00:26:19.223Z,11.20
2023-03-30T00:28:47.705Z,11.20
2023-03-30T00:31:15.832Z,11.20
2023-03-30T00:33:47.209Z,11.20
2023-03-30T00:36:17.274Z,11.20
2023-03-30T00:38:46.818Z,11.10
2023-03-30T00:41:14.987Z,11.20
2023-03-30T00:43:58.570Z,11.10
2023-03-30T00:46:26.813Z,11.10
2023-03-30T00:48:59.188Z,11.10
2023-03-30T00:51:30.460Z,11.00
2023-03-30T00:54:09.092Z,10.90
2023-03-30T00:56:40.225Z,10.90
2023-03-30T00:59:10.477Z,10.90
2023-03-30T01:01:42.051Z,10.80
2023-03-30T01:04:13.384Z,10.80
2023-03-30T01:06:41.948Z,10.80
2023-03-30T01:09:10.621Z,10.80
2023-03-30T01:11:38.829Z,10.70
2023-03-30T01:14:07.851Z,10.60
2023-03-30T01:16:50.019Z,10.50
2023-03-30T01:19:37.404Z,10.40
2023-03-30T01:22:14.246Z,10.30
2023-03-30T01:25:05.186Z,10.20
2023-03-30T01:27:52.218Z,10.20
2023-03-30T01:30:20.295Z,10.20
2023-03-30T01:33:12.368Z,10.30
2023-03-30T01:35:59.468Z,10.40
2023-03-30T01:38:42.579Z,10.40
2023-03-30T01:41:24.413Z,10.50
2023-03-30T01:43:59.506Z,10.50
2023-03-30T01:46:32.084Z,10.50
2023-03-30T01:49:08.949Z,10.60
2023-03-30T01:51:43.987Z,10.60
2023-03-30T01:54:14.592Z,10.60
2023-03-30T01:56:51.245Z,10.60
2023-03-30T01:59:25.629Z,10.70
2023-03-30T02:02:01.779Z,10.70
2023-03-30T02:04:35.014Z,10.70
2023-03-30T02:07:05.574Z,10.80
2023-03-30T02:09:35.247Z,10.80
2023-03-30T02:12:04.180Z,10.80
2023-03-30T02:14:35.476Z,10.70
2023-03-30T02:17:30.236Z,10.70
2023-03-30T02:19:59.759Z,10.70
2023-03-30T02:22:28.531Z,10.70
2023-03-30T02:24:57.489Z,10.60
2023-03-30T02:27:26.311Z,10.60
2023-03-30T02:29:55.875Z,10.50
2023-03-30T02:32:25.548Z,10.40
2023-03-30T02:35:20.083Z,10.30
2023-03-30T02:37:57.241Z,10.00
2023-03-30T02:40:25.309Z,9.90
2023-03-30T02:43:12.146Z,9.90
2023-03-30T02:45:44.232Z,9.90
2023-03-30T02:48:19.381Z,9.80
2023-03-30T02:51:02.943Z,9.70
2023-03-30T02:54:17.178Z,9.70
2023-03-30T02:57:23.943Z,9.70
2023-03-30T02:59:59.308Z,9.70
2023-03-30T03:02:36.851Z,9.60
2023-03-30T03:05:19.131Z,9.60
2023-03-30T03:08:07.396Z,9.60
2023-03-30T03:10:38.177Z,9.60
2023-03-30T03:13:07.456Z,9.60
2023-03-30T03:15:36.729Z,9.70
2023-03-30T03:18:10.000Z,9.70
2023-03-30T03:20:38.173Z,9.70
2023-03-30T03:23:06.562Z,9.70
2023-03-30T03:25:43.634Z,9.70
2023-03-30T03:28:13.988Z,9.80
2023-03-30T03:30:46.425Z,9.80
2023-03-30T03:33:33.270Z,9.80
2023-03-30T03:36:14.001Z,9.90
2023-03-30T03:38:48.354Z,9.90
2023-03-30T03:41:17.635Z,9.90
2023-03-30T03:43:46.283Z,10.00
2023-03-30T03:46:17.461Z,9.90
2023-03-30T03:48:46.293Z,10.00
2023-03-30T03:51:14.583Z,10.00
2023-03-30T03:53:42.844Z,10.10
2023-03-30T03:56:15.682Z,10.10
2023-03-30T03:58:44.071Z,10.10
2023-03-30T04:01:15.637Z,10.10
2023-03-30T04:03:44.238Z,10.20
2023-03-30T04:06:12.722Z,10.20
2023-03-30T04:08:40.913Z,10.20
2023-03-30T04:11:29.403Z,10.20
2023-03-30T04:14:00.772Z,10.10
2023-03-30T04:16:47.540Z,10.20
2023-03-30T04:19:43.332Z,10.40
2023-03-30T04:22:26.973Z,10.50
2023-03-30T04:25:19.177Z,10.60
2023-03-30T04:28:06.307Z,10.70
2023-03-30T04:31:14.188Z,10.80
2023-03-30T04:34:07.092Z,10.80
2023-03-30T04:37:10.029Z,11.00
2023-03-30T04:40:09.184Z,11.30
2023-03-30T04:42:52.031Z,11.50
2023-03-30T04:45:27.960Z,11.70
2023-03-30T04:48:15.212Z,11.70
2023-03-30T04:51:03.822Z,11.90
2023-03-30T04:53:52.350Z,12.00
2023-03-30T04:56:56.064Z,12.00
2023-03-30T04:59:45.255Z,12.00
2023-03-30T05:02:33.431Z,11.90
2023-03-30T05:05:21.839Z,11.90
2023-03-30T05:08:08.867Z,12.00
2023-03-30T05:10:55.826Z,11.90
2023-03-30T05:13:56.322Z,11.90
2023-03-30T05:16:47.504Z,11.90
2023-03-30T05:19:32.360Z,11.90
2023-03-30T05:22:29.978Z,11.90
2023-03-30T05:25:09.505Z,11.90
2023-03-30T05:28:09.818Z,11.80
2023-03-30T05:31:01.489Z,11.70
2023-03-30T05:33:43.932Z,11.60
2023-03-30T05:36:41.496Z,11.60
2023-03-30T05:39:18.579Z,11.70
2023-03-30T05:42:13.424Z,11.70
2023-03-30T05:44:56.208Z,11.70
2023-03-30T05:47:47.884Z,11.70
2023-03-30T05:50:28.407Z,11.70
2023-03-30T05:53:03.653Z,11.70
2023-03-30T05:56:08.592Z,11.70
2023-03-30T05:58:48.400Z,11.70
2023-03-30T06:01:38.811Z,11.80
2023-03-30T06:04:07.630Z,11.80
2023-03-30T06:06:37.789Z,11.80
2023-03-30T06:09:06.424Z,11.80
2023-03-30T06:11:36.528Z,11.90
2023-03-30T06:14:14.649Z,11.90
2023-03-30T06:16:52.267Z,11.90
2023-03-30T06:19:20.612Z,11.90
2023-03-30T06:21:49.097Z,11.90
2023-03-30T06:24:33.456Z,11.90
2023-03-30T06:27:04.441Z,11.90
2023-03-30T06:29:32.799Z,12.00
2023-03-30T06:32:02.088Z,12.00
2023-03-30T06:34:54.508Z,12.00
2023-03-30T06:37:26.705Z,12.00
2023-03-30T06:39:55.058Z,12.00
2023-03-30T06:42:23.576Z,12.10
2023-03-30T06:45:02.335Z,12.00
2023-03-30T06:47:30.535Z,12.00
2023-03-30T06:50:00.388Z,12.10
2023-03-30T06:52:53.723Z,12.10
2023-03-30T06:55:23.483Z,12.10
2023-03-30T06:57:51.924Z,12.10
2023-03-30T07:00:20.679Z,12.10
2023-03-30T07:03:08.211Z,12.10
2023-03-30T07:05:43.960Z,12.10
2023-03-30T07:08:29.242Z,12.10
2023-03-30T07:10:57.861Z,12.10
2023-03-30T07:13:30.874Z,12.00
2023-03-30T07:15:59.229Z,12.10
2023-03-30T07:18:27.773Z,12.10
2023-03-30T07:20:58.621Z,12.10
2023-03-30T07:23:30.521Z,12.00
2023-03-30T07:25:58.726Z,12.00
2023-03-30T07:28:41.859Z,12.00
2023-03-30T07:31:11.802Z,12.00
2023-03-30T07:33:42.478Z,12.00
2023-03-30T07:36:14.975Z,12.00
2023-03-30T07:38:43.319Z,11.90
2023-03-30T07:41:13.024Z,11.90
2023-03-30T07:43:44.973Z,11.90
2023-03-30T07:46:13.791Z,11.80
2023-03-30T07:48:46.489Z,11.90
2023-03-30T07:51:15.252Z,11.90
2023-03-30T07:53:54.568Z,11.90
2023-03-30T07:56:29.433Z,11.90
2023-03-30T07:59:01.776Z,11.90
2023-03-30T08:01:35.369Z,11.80
2023-03-30T08:04:06.952Z,11.80
2023-03-30T08:06:40.028Z,11.80
2023-03-30T08:09:08.710Z,11.80
2023-03-30T08:11:37.523Z,11.80
2023-03-30T08:14:06.100Z,11.80
2023-03-30T08:16:34.785Z,11.80
2023-03-30T08:19:03.321Z,11.90
2023-03-30T08:21:31.593Z,11.90
2023-03-30T08:24:00.570Z,11.90
2023-03-30T08:26:29.822Z,11.90
2023-03-30T08:28:58.506Z,11.90
2023-03-30T08:31:26.727Z,11.80
2023-03-30T08:33:55.101Z,11.80
2023-03-30T08:36:23.687Z,11.80
2023-03-30T08:38:52.141Z,11.80
2023-03-30T08:41:26.369Z,11.80
2023-03-30T08:43:57.026Z,11.70
2023-03-30T08:46:25.384Z,11.80
2023-03-30T08:48:54.791Z,11.90
2023-03-30T08:51:28.974Z,11.90
2023-03-30T08:53:58.488Z,12.00
2023-03-30T08:56:29.117Z,12.00
2023-03-30T08:59:05.898Z,12.00
2023-03-30T09:01:53.375Z,12.10
2023-03-30T09:04:26.820Z,12.10
2023-03-30T09:06:56.518Z,12.10
2023-03-30T09:09:29.901Z,12.20
2023-03-30T09:12:01.160Z,12.20
2023-03-30T09:14:38.385Z,12.20
2023-03-30T09:17:45.577Z,12.30
2023-03-30T09:20:14.380Z,12.30
2023-03-30T09:22:44.026Z,12.30
2023-03-30T09:25:20.513Z,12.40
2023-03-30T09:27:56.926Z,12.40
2023-03-30T09:30:29.838Z,12.40
2023-03-30T09:33:03.362Z,12.40
2023-03-30T09:35:41.714Z,12.40
2023-03-30T09:38:14.419Z,12.40
2023-03-30T09:41:09.328Z,12.50
2023-03-30T09:43:42.537Z,12.40
2023-03-30T09:46:11.506Z,12.40
2023-03-30T09:48:41.511Z,12.40
2023-03-30T09:51:20.888Z,12.40
2023-03-30T09:53:53.896Z,12.50
2023-03-30T09:56:31.338Z,12.50
2023-03-30T09:58:59.884Z,12.40
2023-03-30T10:01:36.476Z,12.40
2023-03-30T10:04:12.854Z,12.50
2023-03-30T10:06:50.635Z,12.50
2023-03-30T10:09:22.601Z,12.60
2023-03-30T10:11:52.091Z,12.60
2023-03-30T10:14:37.045Z,12.70
2023-03-30T10:17:05.956Z,12.70
2023-03-30T10:19:37.809Z,12.70
2023-03-30T10:22:15.155Z,12.70
2023-03-30T10:24:50.512Z,12.80
2023-03-30T10:27:18.942Z,12.80
2023-03-30T10:29:56.534Z,12.90
2023-03-30T10:32:30.899Z,12.90
2023-03-30T10:35:03.414Z,12.90
2023-03-30T10:37:35.253Z,13.00
2023-03-30T10:40:08.574Z,13.00
2023-03-30T10:42:37.903Z,13.00
2023-03-30T10:45:07.512Z,13.00
2023-03-30T10:47:46.913Z,13.10
2023-03-30T10:50:30.540Z,13.20
2023-03-30T10:52:59.612Z,13.20
2023-03-30T10:55:28.170Z,13.30
2023-03-30T10:58:15.253Z,13.30
2023-03-30T11:00:49.710Z,13.40
2023-03-30T11:03:22.382Z,13.40
2023-03-30T11:09:15.017Z,13.60
2023-03-30T11:11:54.663Z,13.60
2023-03-30T11:14:25.368Z,13.70
2023-03-30T11:17:03.175Z,13.80
2023-03-30T11:19:38.060Z,13.80
2023-03-30T11:22:16.169Z,13.80
2023-03-30T11:24:45.296Z,13.80
2023-03-30T11:27:29.140Z,13.70
2023-03-30T11:30:15.959Z,13.70
2023-03-30T11:32:59.587Z,13.80
2023-03-30T11:35:35.151Z,13.70
2023-03-30T11:38:12.461Z,13.70
2023-03-30T11:40:45.309Z,13.70
2023-03-30T11:43:14.685Z,13.80
2023-03-30T11:46:03.798Z,13.90
2023-03-30T11:48:48.901Z,13.90
2023-03-30T11:51:55.666Z,14.00
2023-03-30T11:54:29.501Z,14.10
2023-03-30T11:57:18.824Z,14.20
2023-03-30T12:00:03.184Z,14.20
2023-03-30T12:02:42.774Z,14.20
2023-03-30T12:05:17.000Z,14.30
2023-03-30T12:07:59.761Z,14.30
2023-03-30T12:10:27.743Z,14.40
2023-03-30T12:12:57.414Z,14.40
2023-03-30T12:15:28.407Z,14.50
2023-03-30T12:17:59.315Z,14.60
2023-03-30T12:20:45.432Z,14.90
2023-03-30T12:23:32.055Z,15.30
2023-03-30T12:26:06.500Z,15.70
2023-03-30T12:31:18.427Z,15.90
2023-03-30T12:33:48.504Z,16.00
2023-03-30T12:36:28.438Z,16.20
2023-03-30T12:39:03.593Z,16.20
2023-03-30T12:41:41.479Z,16.20
2023-03-30T12:44:30.293Z,16.40
2023-03-30T12:47:06.793Z,16.50
2023-03-30T12:49:44.685Z,16.50
2023-03-30T12:52:26.784Z,16.10
2023-03-30T12:54:54.788Z,15.90
2023-03-30T12:57:29.518Z,15.60
2023-03-30T13:00:00.629Z,15.60
2023-03-30T13:02:40.663Z,15.70
2023-03-30T13:05:28.418Z,15.80
2023-03-30T13:07:57.212Z,15.80
2023-03-30T13:10:31.359Z,15.80
2023-03-30T13:13:00.370Z,15.60
2023-03-30T13:15:33.695Z,15.40
2023-03-30T13:18:05.375Z,15.50
2023-03-30T13:20:35.283Z,15.40
2023-03-30T13:23:03.479Z,15.40
2023-03-30T13:25:51.764Z,15.40
2023-03-30T13:28:39.096Z,15.30
2023-03-30T13:31:25.283Z,15.30
2023-03-30T13:34:16.631Z,15.40
2023-03-30T13:36:50.028Z,15.50
2023-03-30T13:39:24.002Z,15.90
2023-03-30T13:42:01.034Z,16.50
2023-03-30T13:44:29.101Z,16.90
2023-03-30T13:47:24.534Z,17.00
2023-03-30T13:49:58.477Z,16.70
2023-03-30T13:52:32.725Z,16.60
2023-03-30T13:55:01.769Z,16.40
2023-03-30T13:57:35.968Z,16.20
2023-03-30T14:00:09.439Z,16.20
2023-03-30T14:02:41.249Z,16.30
2023-03-30T14:05:22.024Z,16.50
2023-03-30T14:07:50.684Z,16.50
2023-03-30T14:10:20.958Z,16.50
2023-03-30T14:12:50.158Z,16.40
2023-03-30T14:15:23.707Z,16.30
2023-03-30T14:18:01.922Z,16.40
2023-03-30T14:20:42.445Z,16.50
2023-03-30T14:23:25.780Z,16.70
2023-03-30T14:26:01.105Z,17.20
2023-03-30T14:28:30.127Z,17.10
2023-03-30T14:30:59.870Z,17.10
2023-03-30T14:33:28.082Z,17.20
2023-03-30T14:36:00.361Z,17.10
2023-03-30T14:38:39.594Z,17.20
2023-03-30T14:41:19.590Z,17.20
2023-03-30T14:43:54.184Z,17.10
2023-03-30T14:46:22.847Z,17.30
2023-03-30T14:48:51.251Z,17.20
2023-03-30T14:51:24.995Z,16.90
2023-03-30T14:53:54.408Z,16.70
2023-03-30T14:56:24.017Z,16.30
2023-03-30T14:58:53.287Z,16.20
2023-03-30T15:01:25.442Z,15.90
2023-03-30T15:03:53.777Z,15.80
2023-03-30T15:06:24.833Z,15.80
2023-03-30T15:08:52.896Z,15.60
2023-03-30T15:11:25.309Z,15.60
2023-03-30T15:13:54.554Z,15.50
2023-03-30T15:16:28.701Z,15.40
2023-03-30T15:19:17.550Z,15.30
2023-03-30T15:21:56.327Z,15.30
2023-03-30T15:24:27.275Z,15.20
2023-03-30T15:26:56.977Z,15.20
2023-03-30T15:29:26.228Z,15.10
2023-03-30T15:32:08.570Z,15.10
2023-03-30T15:34:36.738Z,15.20
2023-03-30T15:37:04.853Z,15.50
2023-03-30T15:39:37.879Z,15.70
2023-03-30T15:42:07.683Z,15.80
2023-03-30T15:44:37.502Z,15.90
2023-03-30T15:47:08.482Z,16.00
2023-03-30T15:49:45.021Z,15.90
2023-03-30T15:52:17.934Z,16.10
2023-03-30T15:54:49.392Z,16.20
2023-03-30T15:57:30.792Z,16.30
2023-03-30T16:00:02.172Z,16.40
2023-03-30T16:02:32.569Z,16.30
2023-03-30T16:05:13.139Z,16.30
2023-03-30T16:07:48.529Z,16.10
2023-03-30T16:10:18.252Z,16.10
2023-03-30T16:12:47.060Z,16.00
2023-03-30T16:15:19.571Z,15.80
2023-03-30T16:17:47.841Z,15.90
2023-03-30T16:20:17.919Z,15.80
2023-03-30T16:22:46.076Z,15.70
2023-03-30T16:25:14.738Z,15.70
2023-03-30T16:27:42.971Z,15.60
2023-03-30T16:30:15.682Z,15.50
2023-03-30T16:32:44.041Z,15.40
2023-03-30T16:35:12.501Z,15.30
2023-03-30T16:37:41.259Z,15.20
2023-03-30T16:40:18.705Z,15.20
2023-03-30T16:42:46.784Z,15.20
2023-03-30T16:45:14.872Z,15.10
2023-03-30T16:47:42.929Z,15.00
2023-03-30T16:50:22.162Z,14.80
2023-03-30T16:52:50.458Z,14.80
2023-03-30T16:55:19.166Z,14.70
2023-03-30T16:57:47.339Z,14.60
2023-03-30T17:00:18.105Z,14.60
2023-03-30T17:02:46.200Z,14.60
2023-03-30T17:05:14.616Z,14.50
2023-03-30T17:07:43.403Z,14.50
2023-03-30T17:10:15.299Z,14.40
2023-03-30T17:12:43.785Z,14.40
2023-03-30T17:15:12.297Z,14.40
2023-03-30T17:17:40.426Z,14.30
2023-03-30T17:20:19.744Z,14.20
2023-03-30T17:22:47.945Z,13.80
2023-03-30T17:25:16.372Z,13.40
2023-03-30T17:27:44.519Z,13.00
2023-03-30T17:30:18.096Z,12.80
2023-03-30T17:32:49.176Z,12.70
2023-03-30T17:35:20.223Z,12.60
2023-03-30T17:37:48.288Z,12.60
2023-03-30T17:40:19.417Z,12.50
2023-03-30T17:42:47.737Z,12.50
2023-03-30T17:45:16.732Z,12.50
2023-03-30T17:47:45.351Z,12.40
2023-03-30T17:50:27.418Z,12.40
2023-03-30T17:52:56.303Z,12.30
2023-03-30T17:55:25.790Z,12.20
2023-03-30T17:57:53.845Z,12.30
2023-03-30T18:00:29.192Z,12.20
2023-03-30T18:02:57.497Z,12.20
2023-03-30T18:05:26.499Z,11.90
2023-03-30T18:07:54.841Z,11.90
2023-03-30T18:10:23.077Z,11.80
2023-03-30T18:12:51.714Z,11.70
2023-03-30T18:15:20.978Z,11.70
2023-03-30T18:17:49.193Z,11.60
2023-03-30T18:20:18.858Z,11.60
2023-03-30T18:22:47.000Z,11.40
2023-03-30T18:25:25.595Z,11.30
2023-03-30T18:28:04.140Z,11.20
2023-03-30T18:30:40.699Z,11.00
2023-03-30T18:33:08.887Z,11.00
2023-03-30T18:35:37.857Z,11.00
2023-03-30T18:38:06.805Z,11.00
2023-03-30T18:40:39.490Z,11.00
2023-03-30T18:43:07.778Z,11.10
2023-03-30T18:45:37.199Z,10.90
2023-03-30T18:48:06.352Z,10.80
2023-03-30T18:50:36.057Z,10.70
2023-03-30T18:53:05.447Z,10.60
2023-03-30T18:55:34.768Z,10.40
2023-03-30T18:58:03.858Z,10.50
2023-03-30T19:00:33.164Z,10.50
2023-03-30T19:03:01.877Z,10.40
2023-03-30T19:05:30.895Z,10.30
2023-03-30T19:07:59.007Z,10.30
2023-03-30T19:10:29.092Z,10.30
2023-03-30T19:12:57.492Z,10.20
2023-03-30T19:15:26.701Z,10.00
2023-03-30T19:17:54.996Z,9.90
2023-03-30T19:20:24.805Z,9.80
2023-03-30T19:22:52.848Z,9.80
2023-03-30T19:25:21.917Z,9.90
2023-03-30T19:28:01.690Z,9.90
2023-03-30T19:30:36.864Z,9.80
2023-03-30T19:33:09.347Z,9.80
2023-03-30T19:35:37.541Z,9.80
2023-03-30T19:38:05.596Z,9.90
2023-03-30T19:40:33.694Z,9.90
2023-03-30T19:43:01.802Z,10.00
2023-03-30T19:45:29.917Z,10.00
2023-03-30T19:47:57.951Z,10.00
2023-03-30T19:50:27.962Z,10.20
2023-03-30T19:52:57.572Z,10.40
2023-03-30T19:55:25.717Z,10.50
2023-03-30T19:57:53.915Z,10.70
2023-03-30T20:00:22.455Z,10.80
2023-03-30T20:02:52.283Z,10.80
2023-03-30T20:05:21.980Z,10.80
2023-03-30T20:07:50.330Z,10.90
2023-03-30T20:10:20.709Z,11.00
2023-03-30T20:12:49.515Z,11.00
2023-03-30T20:15:18.196Z,11.00
2023-03-30T20:17:46.351Z,11.00
2023-03-30T20:20:15.529Z,11.00
2023-03-30T20:22:45.013Z,11.00
2023-03-30T20:25:14.727Z,11.00
2023-03-30T20:27:43.125Z,11.00
2023-03-30T20:30:12.868Z,11.00
2023-03-30T20:32:41.517Z,11.10
2023-03-30T20:35:12.714Z,11.00
2023-03-30T20:37:40.993Z,11.00
2023-03-30T20:40:11.354Z,11.00
2023-03-30T20:42:48.334Z,11.00
2023-03-30T20:45:18.783Z,11.00
2023-03-30T20:47:51.287Z,10.90
2023-03-30T20:50:19.542Z,10.90
2023-03-30T20:52:47.735Z,10.90
2023-03-30T20:55:16.059Z,10.90
2023-03-30T20:57:44.394Z,10.90
2023-03-30T21:00:13.028Z,10.90
2023-03-30T21:02:41.271Z,10.90
2023-03-30T21:05:09.871Z,10.90
2023-03-30T21:07:39.379Z,11.00
2023-03-30T21:10:07.745Z,11.00
2023-03-30T21:15:16.877Z,11.00
2023-03-30T21:17:44.906Z,10.90
2023-03-30T21:20:13.227Z,11.00
2023-03-30T21:22:41.234Z,10.90
2023-03-30T21:25:09.496Z,10.90
2023-03-30T21:27:37.769Z,10.90
2023-03-30T21:30:06.540Z,10.90
2023-03-30T21:32:34.576Z,10.90
2023-03-30T21:35:02.601Z,10.90
2023-03-30T21:37:30.596Z,10.90
2023-03-30T21:39:58.629Z,10.80
2023-03-30T21:42:26.655Z,10.80
2023-03-30T21:44:54.685Z,10.80
2023-03-30T21:47:22.779Z,10.80
2023-03-30T21:49:51.503Z,10.80
2023-03-30T21:52:19.638Z,10.80
2023-03-30T21:54:47.642Z,10.80
2023-03-30T21:57:15.792Z,10.80
2023-03-30T21:59:43.877Z,10.80
2023-03-30T22:02:11.967Z,10.80
2023-03-30T22:04:40.009Z,10.80
2023-03-30T22:07:08.039Z,10.80
2023-03-30T22:09:36.196Z,10.80
2023-03-30T22:12:04.844Z,10.80
2023-03-30T22:14:32.869Z,10.70
2023-03-30T22:17:00.904Z,10.80
2023-03-30T22:19:33.309Z,10.80
2023-03-30T22:22:03.893Z,10.80
2023-03-30T22:24:32.096Z,10.80
2023-03-30T22:27:00.118Z,10.80
2023-03-30T22:29:28.209Z,10.70
2023-03-30T22:31:57.123Z,10.70
2023-03-30T22:34:25.267Z,10.70
2023-03-30T22:36:54.113Z,10.70
2023-03-30T22:39:22.386Z,10.70
2023-03-30T22:41:50.445Z,10.70
2023-03-30T22:44:19.106Z,10.70
2023-03-30T22:46:47.161Z,10.60
2023-03-30T22:49:15.499Z,10.60
2023-03-30T22:51:53.162Z,10.60
2023-03-30T22:54:21.592Z,10.50
2023-03-30T22:56:50.054Z,10.50
2023-03-30T22:59:18.342Z,10.50
2023-03-30T23:01:46.588Z,10.50
2023-03-30T23:04:14.631Z,10.50
2023-03-30T23:06:42.857Z,10.50
2023-03-30T23:09:14.764Z,10.40
2023-03-30T23:11:42.909Z,10.40
2023-03-30T23:14:10.900Z,10.30
2023-03-30T23:16:39.197Z,10.30
2023-03-30T23:19:08.068Z,10.30
2023-03-30T23:21:36.210Z,10.30
2023-03-30T23:24:08.533Z,10.20
2023-03-30T23:26:36.830Z,10.20
2023-03-30T23:29:05.166Z,10.10
2023-03-30T23:31:33.952Z,10.10
2023-03-30T23:34:02.167Z,10.00
2023-03-30T23:36:30.326Z,10.00
2023-03-30T23:38:58.588Z,9.90
2023-03-30T23:41:27.121Z,9.90
2023-03-30T23:43:55.121Z,9.80
2023-03-30T23:46:23.192Z,9.80
2023-03-30T23:48:51.392Z,9.70
2023-03-30T23:51:19.453Z,9.70
2023-03-30T23:53:50.727Z,9.70
2023-03-30T23:56:18.744Z,9.60
2023-03-30T23:58:49.779Z,9.60
